sensor_id;sensor_type;location;lat;lon;timestamp;P1;durP1;ratioP1;P2;durP2;ratioP2
33644;SDS011;19986;48.190;16.366;2023-07-29T00:01:30;32.33;;;30.73;;
33644;SDS011;19986;48.190;16.366;2023-07-29T00:03:56;32.97;;;31.38;;
33644;SDS011;19986;48.190;16.366;2023-07-29T00:06:23;33.38;;;31.67;;
33644;SDS011;19986;48.190;16.366;2023-07-29T00:08:49;34.05;;;32.42;;
33644;SDS011;19986;48.190;16.366;2023-07-29T00:11:15;33.47;;;31.88;;
33644;SDS011;19986;48.190;16.366;2023-07-29T00:13:41;33.35;;;31.63;;
33644;SDS011;19986;48.190;16.366;2023-07-29T00:16:07;34.05;;;32.38;;
33644;SDS011;19986;48.190;16.366;2023-07-29T00:18:33;32.80;;;31.17;;
33644;SDS011;19986;48.190;16.366;2023-07-29T00:20:59;32.92;;;31.30;;
33644;SDS011;19986;48.190;16.366;2023-07-29T00:23:24;35.30;;;33.22;;
33644;SDS011;19986;48.190;16.366;2023-07-29T00:25:50;34.50;;;32.70;;
33644;SDS011;19986;48.190;16.366;2023-07-29T00:28:16;33.67;;;31.85;;
33644;SDS011;19986;48.190;16.366;2023-07-29T00:30:42;34.75;;;32.95;;
33644;SDS011;19986;48.190;16.366;2023-07-29T00:33:08;32.60;;;31.00;;
33644;SDS011;19986;48.190;16.366;2023-07-29T00:35:34;35.90;;;34.08;;
33644;SDS011;19986;48.190;16.366;2023-07-29T00:38:00;33.45;;;31.75;;
33644;SDS011;19986;48.190;16.366;2023-07-29T00:40:27;32.95;;;31.42;;
33644;SDS011;19986;48.190;16.366;2023-07-29T00:42:54;32.75;;;31.15;;
33644;SDS011;19986;48.190;16.366;2023-07-29T00:45:20;32.20;;;30.60;;
33644;SDS011;19986;48.190;16.366;2023-07-29T00:47:46;33.50;;;31.88;;
33644;SDS011;19986;48.190;16.366;2023-07-29T00:50:13;33.45;;;31.85;;
33644;SDS011;19986;48.190;16.366;2023-07-29T00:52:40;33.75;;;32.05;;
33644;SDS011;19986;48.190;16.366;2023-07-29T00:55:07;34.80;;;33.00;;
33644;SDS011;19986;48.190;16.366;2023-07-29T00:57:33;34.05;;;32.45;;
33644;SDS011;19986;48.190;16.366;2023-07-29T01:00:00;32.30;;;30.75;;
33644;SDS011;19986;48.190;16.366;2023-07-29T01:02:26;35.67;;;33.78;;
33644;SDS011;19986;48.190;16.366;2023-07-29T01:04:55;33.88;;;32.17;;
33644;SDS011;19986;48.190;16.366;2023-07-29T01:09:55;34.35;;;32.67;;
33644;SDS011;19986;48.190;16.366;2023-07-29T01:15:50;34.33;;;32.63;;
33644;SDS011;19986;48.190;16.366;2023-07-29T01:18:31;33.55;;;31.85;;
33644;SDS011;19986;48.190;16.366;2023-07-29T01:21:02;34.47;;;32.67;;
33644;SDS011;19986;48.190;16.366;2023-07-29T01:23:35;33.15;;;31.58;;
33644;SDS011;19986;48.190;16.366;2023-07-29T01:26:02;33.30;;;31.60;;
33644;SDS011;19986;48.190;16.366;2023-07-29T01:28:28;33.17;;;31.58;;
33644;SDS011;19986;48.190;16.366;2023-07-29T01:31:02;32.85;;;31.05;;
33644;SDS011;19986;48.190;16.366;2023-07-29T01:33:35;34.60;;;32.80;;
33644;SDS011;19986;48.190;16.366;2023-07-29T01:36:25;33.50;;;31.88;;
33644;SDS011;19986;48.190;16.366;2023-07-29T01:38:54;34.15;;;32.45;;
33644;SDS011;19986;48.190;16.366;2023-07-29T01:41:21;34.88;;;33.13;;
33644;SDS011;19986;48.190;16.366;2023-07-29T01:43:49;33.15;;;31.55;;
33644;SDS011;19986;48.190;16.366;2023-07-29T01:46:17;34.05;;;32.35;;
33644;SDS011;19986;48.190;16.366;2023-07-29T01:48:44;34.65;;;32.90;;
33644;SDS011;19986;48.190;16.366;2023-07-29T01:51:11;34.95;;;33.03;;
33644;SDS011;19986;48.190;16.366;2023-07-29T01:53:38;32.72;;;31.02;;
33644;SDS011;19986;48.190;16.366;2023-07-29T01:56:04;33.50;;;31.88;;
33644;SDS011;19986;48.190;16.366;2023-07-29T01:58:30;33.95;;;32.25;;
33644;SDS011;19986;48.190;16.366;2023-07-29T02:00:56;34.15;;;32.53;;
33644;SDS011;19986;48.190;16.366;2023-07-29T02:03:22;33.13;;;31.42;;
33644;SDS011;19986;48.190;16.366;2023-07-29T02:05:49;34.28;;;32.60;;
33644;SDS011;19986;48.190;16.366;2023-07-29T02:08:15;34.00;;;32.20;;
33644;SDS011;19986;48.190;16.366;2023-07-29T02:10:42;33.08;;;31.48;;
33644;SDS011;19986;48.190;16.366;2023-07-29T02:13:11;33.78;;;32.17;;
33644;SDS011;19986;48.190;16.366;2023-07-29T02:15:38;34.58;;;32.92;;
33644;SDS011;19986;48.190;16.366;2023-07-29T02:18:04;35.17;;;33.38;;
33644;SDS011;19986;48.190;16.366;2023-07-29T02:20:32;33.60;;;31.90;;
33644;SDS011;19986;48.190;16.366;2023-07-29T02:22:59;33.45;;;31.77;;
33644;SDS011;19986;48.190;16.366;2023-07-29T02:25:24;33.92;;;32.22;;
33644;SDS011;19986;48.190;16.366;2023-07-29T02:27:51;32.45;;;30.95;;
33644;SDS011;19986;48.190;16.366;2023-07-29T02:30:17;33.95;;;32.25;;
33644;SDS011;19986;48.190;16.366;2023-07-29T02:32:44;32.15;;;30.55;;
33644;SDS011;19986;48.190;16.366;2023-07-29T02:35:11;33.45;;;31.65;;
33644;SDS011;19986;48.190;16.366;2023-07-29T02:37:38;34.10;;;32.20;;
33644;SDS011;19986;48.190;16.366;2023-07-29T02:40:04;33.20;;;31.50;;
33644;SDS011;19986;48.190;16.366;2023-07-29T02:42:31;33.97;;;32.28;;
33644;SDS011;19986;48.190;16.366;2023-07-29T02:44:57;34.38;;;32.72;;
33644;SDS011;19986;48.190;16.366;2023-07-29T02:47:24;34.40;;;32.70;;
33644;SDS011;19986;48.190;16.366;2023-07-29T02:49:49;34.95;;;33.35;;
33644;SDS011;19986;48.190;16.366;2023-07-29T02:52:15;33.70;;;32.10;;
33644;SDS011;19986;48.190;16.366;2023-07-29T02:54:41;33.15;;;31.58;;
33644;SDS011;19986;48.190;16.366;2023-07-29T02:57:07;31.15;;;29.75;;
33644;SDS011;19986;48.190;16.366;2023-07-29T02:59:33;35.13;;;33.50;;
33644;SDS011;19986;48.190;16.366;2023-07-29T03:01:58;30.60;;;29.13;;
33644;SDS011;19986;48.190;16.366;2023-07-29T03:04:24;32.83;;;31.23;;
33644;SDS011;19986;48.190;16.366;2023-07-29T03:06:50;32.80;;;31.30;;
33644;SDS011;19986;48.190;16.366;2023-07-29T03:09:16;33.58;;;32.05;;
33644;SDS011;19986;48.190;16.366;2023-07-29T03:11:42;33.38;;;31.88;;
33644;SDS011;19986;48.190;16.366;2023-07-29T03:14:08;33.75;;;32.15;;
33644;SDS011;19986;48.190;16.366;2023-07-29T03:16:34;31.75;;;30.25;;
33644;SDS011;19986;48.190;16.366;2023-07-29T03:18:59;34.38;;;32.40;;
33644;SDS011;19986;48.190;16.366;2023-07-29T03:21:25;33.63;;;32.03;;
33644;SDS011;19986;48.190;16.366;2023-07-29T03:23:51;33.33;;;31.83;;
33644;SDS011;19986;48.190;16.366;2023-07-29T03:26:17;34.28;;;32.53;;
33644;SDS011;19986;48.190;16.366;2023-07-29T03:28:43;34.10;;;32.35;;
33644;SDS011;19986;48.190;16.366;2023-07-29T03:31:09;33.50;;;31.90;;
33644;SDS011;19986;48.190;16.366;2023-07-29T03:33:35;34.90;;;32.63;;
33644;SDS011;19986;48.190;16.366;2023-07-29T03:36:01;31.20;;;29.70;;
33644;SDS011;19986;48.190;16.366;2023-07-29T03:38:27;34.10;;;32.40;;
33644;SDS011;19986;48.190;16.366;2023-07-29T03:40:53;32.90;;;31.40;;
33644;SDS011;19986;48.190;16.366;2023-07-29T03:43:19;32.65;;;31.15;;
33644;SDS011;19986;48.190;16.366;2023-07-29T03:45:45;32.85;;;31.35;;
33644;SDS011;19986;48.190;16.366;2023-07-29T03:48:10;33.08;;;31.52;;
33644;SDS011;19986;48.190;16.366;2023-07-29T03:50:36;31.98;;;30.38;;
33644;SDS011;19986;48.190;16.366;2023-07-29T03:53:03;32.88;;;31.38;;
33644;SDS011;19986;48.190;16.366;2023-07-29T03:55:30;33.42;;;31.83;;
33644;SDS011;19986;48.190;16.366;2023-07-29T03:57:56;33.38;;;31.83;;
33644;SDS011;19986;48.190;16.366;2023-07-29T04:00:23;34.25;;;32.65;;
33644;SDS011;19986;48.190;16.366;2023-07-29T04:02:49;34.15;;;32.55;;
33644;SDS011;19986;48.190;16.366;2023-07-29T04:05:15;31.45;;;29.90;;
33644;SDS011;19986;48.190;16.366;2023-07-29T04:07:41;32.83;;;31.23;;
33644;SDS011;19986;48.190;16.366;2023-07-29T04:10:07;32.38;;;30.88;;
33644;SDS011;19986;48.190;16.366;2023-07-29T04:12:33;33.17;;;31.67;;
33644;SDS011;19986;48.190;16.366;2023-07-29T04:14:59;32.95;;;31.40;;
33644;SDS011;19986;48.190;16.366;2023-07-29T04:17:25;33.15;;;31.55;;
33644;SDS011;19986;48.190;16.366;2023-07-29T04:19:51;32.33;;;30.83;;
33644;SDS011;19986;48.190;16.366;2023-07-29T04:22:17;33.63;;;31.92;;
33644;SDS011;19986;48.190;16.366;2023-07-29T04:24:43;34.35;;;32.65;;
33644;SDS011;19986;48.190;16.366;2023-07-29T04:27:08;32.60;;;31.10;;
33644;SDS011;19986;48.190;16.366;2023-07-29T04:29:35;32.80;;;31.10;;
33644;SDS011;19986;48.190;16.366;2023-07-29T04:32:04;33.58;;;31.98;;
33644;SDS011;19986;48.190;16.366;2023-07-29T04:34:30;33.35;;;31.75;;
33644;SDS011;19986;48.190;16.366;2023-07-29T04:36:56;32.33;;;30.83;;
33644;SDS011;19986;48.190;16.366;2023-07-29T04:39:23;33.75;;;32.15;;
33644;SDS011;19986;48.190;16.366;2023-07-29T04:41:49;33.42;;;31.83;;
33644;SDS011;19986;48.190;16.366;2023-07-29T04:44:15;32.40;;;30.80;;
33644;SDS011;19986;48.190;16.366;2023-07-29T04:46:41;34.17;;;32.65;;
33644;SDS011;19986;48.190;16.366;2023-07-29T04:49:06;33.42;;;31.83;;
33644;SDS011;19986;48.190;16.366;2023-07-29T04:51:32;33.45;;;31.85;;
33644;SDS011;19986;48.190;16.366;2023-07-29T04:53:58;34.17;;;32.58;;
33644;SDS011;19986;48.190;16.366;2023-07-29T04:56:24;33.05;;;31.55;;
33644;SDS011;19986;48.190;16.366;2023-07-29T04:58:50;35.20;;;33.50;;
33644;SDS011;19986;48.190;16.366;2023-07-29T05:01:16;33.30;;;31.55;;
33644;SDS011;19986;48.190;16.366;2023-07-29T05:03:42;33.22;;;31.52;;
33644;SDS011;19986;48.190;16.366;2023-07-29T05:06:08;32.80;;;31.20;;
33644;SDS011;19986;48.190;16.366;2023-07-29T05:08:34;34.17;;;32.13;;
33644;SDS011;19986;48.190;16.366;2023-07-29T05:11:00;34.38;;;32.10;;
33644;SDS011;19986;48.190;16.366;2023-07-29T05:13:26;32.33;;;30.52;;
33644;SDS011;19986;48.190;16.366;2023-07-29T05:15:51;32.80;;;30.88;;
33644;SDS011;19986;48.190;16.366;2023-07-29T05:18:17;32.67;;;30.83;;
33644;SDS011;19986;48.190;16.366;2023-07-29T05:20:43;33.75;;;31.42;;
33644;SDS011;19986;48.190;16.366;2023-07-29T05:23:09;32.00;;;30.40;;
33644;SDS011;19986;48.190;16.366;2023-07-29T05:25:35;32.17;;;30.55;;
33644;SDS011;19986;48.190;16.366;2023-07-29T05:28:01;33.33;;;31.50;;
33644;SDS011;19986;48.190;16.366;2023-07-29T05:30:28;32.88;;;31.10;;
33644;SDS011;19986;48.190;16.366;2023-07-29T05:32:59;31.63;;;30.02;;
33644;SDS011;19986;48.190;16.366;2023-07-29T05:35:25;32.95;;;31.25;;
33644;SDS011;19986;48.190;16.366;2023-07-29T05:37:51;32.47;;;30.95;;
33644;SDS011;19986;48.190;16.366;2023-07-29T05:40:17;32.63;;;31.05;;
33644;SDS011;19986;48.190;16.366;2023-07-29T05:42:43;32.25;;;30.48;;
33644;SDS011;19986;48.190;16.366;2023-07-29T05:45:10;32.50;;;30.83;;
33644;SDS011;19986;48.190;16.366;2023-07-29T05:47:36;31.60;;;30.00;;
33644;SDS011;19986;48.190;16.366;2023-07-29T05:50:02;31.92;;;30.50;;
33644;SDS011;19986;48.190;16.366;2023-07-29T05:52:32;31.88;;;30.38;;
33644;SDS011;19986;48.190;16.366;2023-07-29T05:54:58;32.75;;;31.15;;
33644;SDS011;19986;48.190;16.366;2023-07-29T05:57:24;34.92;;;33.03;;
33644;SDS011;19986;48.190;16.366;2023-07-29T05:59:50;32.50;;;30.80;;
33644;SDS011;19986;48.190;16.366;2023-07-29T06:02:16;32.33;;;30.67;;
33644;SDS011;19986;48.190;16.366;2023-07-29T06:04:42;31.30;;;29.80;;
33644;SDS011;19986;48.190;16.366;2023-07-29T06:07:08;32.05;;;30.23;;
33644;SDS011;19986;48.190;16.366;2023-07-29T06:09:34;32.40;;;30.70;;
33644;SDS011;19986;48.190;16.366;2023-07-29T06:11:59;32.67;;;31.08;;
33644;SDS011;19986;48.190;16.366;2023-07-29T06:14:26;30.85;;;29.45;;
33644;SDS011;19986;48.190;16.366;2023-07-29T06:16:51;32.97;;;31.10;;
33644;SDS011;19986;48.190;16.366;2023-07-29T06:19:18;31.67;;;30.17;;
33644;SDS011;19986;48.190;16.366;2023-07-29T06:21:45;32.42;;;30.77;;
33644;SDS011;19986;48.190;16.366;2023-07-29T06:24:11;30.27;;;28.77;;
33644;SDS011;19986;48.190;16.366;2023-07-29T06:26:37;34.80;;;32.15;;
33644;SDS011;19986;48.190;16.366;2023-07-29T06:29:03;33.95;;;32.33;;
33644;SDS011;19986;48.190;16.366;2023-07-29T06:31:29;30.58;;;29.17;;
33644;SDS011;19986;48.190;16.366;2023-07-29T06:33:55;30.00;;;28.60;;
33644;SDS011;19986;48.190;16.366;2023-07-29T06:36:21;30.75;;;29.33;;
33644;SDS011;19986;48.190;16.366;2023-07-29T06:38:47;32.58;;;31.08;;
33644;SDS011;19986;48.190;16.366;2023-07-29T06:41:13;31.58;;;30.08;;
33644;SDS011;19986;48.190;16.366;2023-07-29T06:43:41;31.92;;;30.52;;
33644;SDS011;19986;48.190;16.366;2023-07-29T06:46:07;33.05;;;31.55;;
33644;SDS011;19986;48.190;16.366;2023-07-29T06:48:33;30.35;;;29.00;;
33644;SDS011;19986;48.190;16.366;2023-07-29T06:50:59;30.60;;;29.10;;
33644;SDS011;19986;48.190;16.366;2023-07-29T06:53:29;31.60;;;30.15;;
33644;SDS011;19986;48.190;16.366;2023-07-29T06:55:55;30.63;;;29.00;;
33644;SDS011;19986;48.190;16.366;2023-07-29T06:58:21;30.65;;;29.25;;
33644;SDS011;19986;48.190;16.366;2023-07-29T07:00:46;29.85;;;28.45;;
33644;SDS011;19986;48.190;16.366;2023-07-29T07:03:12;31.55;;;29.80;;
33644;SDS011;19986;48.190;16.366;2023-07-29T07:05:38;29.50;;;28.00;;
33644;SDS011;19986;48.190;16.366;2023-07-29T07:08:04;32.03;;;30.52;;
33644;SDS011;19986;48.190;16.366;2023-07-29T07:10:30;31.15;;;29.70;;
33644;SDS011;19986;48.190;16.366;2023-07-29T07:12:55;30.30;;;28.80;;
33644;SDS011;19986;48.190;16.366;2023-07-29T07:15:21;31.88;;;30.38;;
33644;SDS011;19986;48.190;16.366;2023-07-29T07:17:47;31.67;;;30.25;;
33644;SDS011;19986;48.190;16.366;2023-07-29T07:20:13;30.85;;;29.35;;
33644;SDS011;19986;48.190;16.366;2023-07-29T07:22:39;31.55;;;30.08;;
33644;SDS011;19986;48.190;16.366;2023-07-29T07:25:04;30.73;;;29.23;;
33644;SDS011;19986;48.190;16.366;2023-07-29T07:27:31;30.88;;;29.38;;
33644;SDS011;19986;48.190;16.366;2023-07-29T07:29:57;29.85;;;28.45;;
33644;SDS011;19986;48.190;16.366;2023-07-29T07:32:22;31.05;;;29.55;;
33644;SDS011;19986;48.190;16.366;2023-07-29T07:34:48;31.70;;;30.20;;
33644;SDS011;19986;48.190;16.366;2023-07-29T07:37:14;31.58;;;29.95;;
33644;SDS011;19986;48.190;16.366;2023-07-29T07:39:40;29.65;;;28.25;;
33644;SDS011;19986;48.190;16.366;2023-07-29T07:42:06;31.60;;;30.00;;
33644;SDS011;19986;48.190;16.366;2023-07-29T07:44:31;31.90;;;30.40;;
33644;SDS011;19986;48.190;16.366;2023-07-29T07:46:57;31.95;;;30.35;;
33644;SDS011;19986;48.190;16.366;2023-07-29T07:49:23;30.13;;;28.42;;
33644;SDS011;19986;48.190;16.366;2023-07-29T07:51:49;30.83;;;29.38;;
33644;SDS011;19986;48.190;16.366;2023-07-29T07:54:15;30.92;;;29.45;;
33644;SDS011;19986;48.190;16.366;2023-07-29T07:56:41;30.05;;;28.67;;
33644;SDS011;19986;48.190;16.366;2023-07-29T07:59:07;29.75;;;28.25;;
33644;SDS011;19986;48.190;16.366;2023-07-29T08:01:37;31.15;;;29.65;;
33644;SDS011;19986;48.190;16.366;2023-07-29T08:04:04;30.80;;;29.27;;
33644;SDS011;19986;48.190;16.366;2023-07-29T08:06:31;30.58;;;29.17;;
33644;SDS011;19986;48.190;16.366;2023-07-29T08:08:58;30.45;;;29.15;;
33644;SDS011;19986;48.190;16.366;2023-07-29T08:11:24;30.33;;;28.92;;
33644;SDS011;19986;48.190;16.366;2023-07-29T08:13:50;30.08;;;28.67;;
33644;SDS011;19986;48.190;16.366;2023-07-29T08:16:16;31.65;;;30.15;;
33644;SDS011;19986;48.190;16.366;2023-07-29T08:18:42;30.30;;;28.80;;
33644;SDS011;19986;48.190;16.366;2023-07-29T08:21:09;30.20;;;28.73;;
33644;SDS011;19986;48.190;16.366;2023-07-29T08:23:35;31.08;;;29.67;;
33644;SDS011;19986;48.190;16.366;2023-07-29T08:26:02;30.27;;;28.98;;
33644;SDS011;19986;48.190;16.366;2023-07-29T08:28:34;29.80;;;28.50;;
33644;SDS011;19986;48.190;16.366;2023-07-29T08:31:01;30.95;;;29.55;;
33644;SDS011;19986;48.190;16.366;2023-07-29T08:33:28;31.23;;;29.67;;
33644;SDS011;19986;48.190;16.366;2023-07-29T08:35:54;29.65;;;28.25;;
33644;SDS011;19986;48.190;16.366;2023-07-29T08:38:20;31.40;;;30.00;;
33644;SDS011;19986;48.190;16.366;2023-07-29T08:40:59;29.05;;;27.75;;
33644;SDS011;19986;48.190;16.366;2023-07-29T08:43:39;31.73;;;30.13;;
33644;SDS011;19986;48.190;16.366;2023-07-29T08:46:28;31.80;;;30.20;;
33644;SDS011;19986;48.190;16.366;2023-07-29T08:48:54;33.28;;;31.60;;
33644;SDS011;19986;48.190;16.366;2023-07-29T08:51:20;29.83;;;28.52;;
33644;SDS011;19986;48.190;16.366;2023-07-29T08:53:48;29.73;;;28.23;;
33644;SDS011;19986;48.190;16.366;2023-07-29T08:56:15;30.42;;;28.95;;
33644;SDS011;19986;48.190;16.366;2023-07-29T08:58:41;29.48;;;28.17;;
33644;SDS011;19986;48.190;16.366;2023-07-29T09:01:08;31.20;;;29.60;;
33644;SDS011;19986;48.190;16.366;2023-07-29T09:03:34;30.77;;;29.35;;
33644;SDS011;19986;48.190;16.366;2023-07-29T09:06:00;29.33;;;28.02;;
33644;SDS011;19986;48.190;16.366;2023-07-29T09:08:27;30.65;;;29.25;;
33644;SDS011;19986;48.190;16.366;2023-07-29T09:10:54;29.50;;;28.17;;
33644;SDS011;19986;48.190;16.366;2023-07-29T09:13:23;29.63;;;28.33;;
33644;SDS011;19986;48.190;16.366;2023-07-29T09:15:53;30.60;;;29.10;;
33644;SDS011;19986;48.190;16.366;2023-07-29T09:18:21;29.10;;;27.80;;
33644;SDS011;19986;48.190;16.366;2023-07-29T09:20:47;29.85;;;28.35;;
33644;SDS011;19986;48.190;16.366;2023-07-29T09:23:14;29.27;;;27.98;;
33644;SDS011;19986;48.190;16.366;2023-07-29T09:25:41;28.58;;;27.27;;
33644;SDS011;19986;48.190;16.366;2023-07-29T09:28:11;30.23;;;28.63;;
33644;SDS011;19986;48.190;16.366;2023-07-29T09:30:39;29.20;;;27.80;;
33644;SDS011;19986;48.190;16.366;2023-07-29T09:33:10;28.23;;;27.02;;
33644;SDS011;19986;48.190;16.366;2023-07-29T09:35:37;28.90;;;27.50;;
33644;SDS011;19986;48.190;16.366;2023-07-29T09:38:04;29.13;;;27.83;;
33644;SDS011;19986;48.190;16.366;2023-07-29T09:40:34;28.67;;;27.38;;
33644;SDS011;19986;48.190;16.366;2023-07-29T09:43:02;30.58;;;28.63;;
33644;SDS011;19986;48.190;16.366;2023-07-29T09:45:29;29.05;;;27.75;;
33644;SDS011;19986;48.190;16.366;2023-07-29T09:47:56;29.38;;;28.02;;
33644;SDS011;19986;48.190;16.366;2023-07-29T09:50:24;29.10;;;27.70;;
33644;SDS011;19986;48.190;16.366;2023-07-29T09:52:51;28.80;;;27.40;;
33644;SDS011;19986;48.190;16.366;2023-07-29T09:55:18;27.73;;;26.45;;
33644;SDS011;19986;48.190;16.366;2023-07-29T09:57:45;28.67;;;27.38;;
33644;SDS011;19986;48.190;16.366;2023-07-29T10:00:11;28.67;;;27.35;;
33644;SDS011;19986;48.190;16.366;2023-07-29T10:02:38;28.15;;;26.88;;
33644;SDS011;19986;48.190;16.366;2023-07-29T10:05:06;29.10;;;27.70;;
33644;SDS011;19986;48.190;16.366;2023-07-29T10:07:36;28.00;;;26.67;;
33644;SDS011;19986;48.190;16.366;2023-07-29T10:10:03;28.33;;;26.85;;
33644;SDS011;19986;48.190;16.366;2023-07-29T10:12:31;30.70;;;28.83;;
33644;SDS011;19986;48.190;16.366;2023-07-29T10:15:03;28.50;;;27.10;;
33644;SDS011;19986;48.190;16.366;2023-07-29T10:17:30;28.38;;;27.13;;
33644;SDS011;19986;48.190;16.366;2023-07-29T10:19:59;29.35;;;27.95;;
33644;SDS011;19986;48.190;16.366;2023-07-29T10:22:33;27.10;;;25.80;;
33644;SDS011;19986;48.190;16.366;2023-07-29T10:25:04;27.75;;;26.55;;
33644;SDS011;19986;48.190;16.366;2023-07-29T10:27:40;28.50;;;27.30;;
33644;SDS011;19986;48.190;16.366;2023-07-29T10:30:18;27.75;;;26.42;;
33644;SDS011;19986;48.190;16.366;2023-07-29T10:32:45;29.08;;;27.77;;
33644;SDS011;19986;48.190;16.366;2023-07-29T10:35:12;28.38;;;27.08;;
33644;SDS011;19986;48.190;16.366;2023-07-29T10:37:38;27.92;;;26.67;;
33644;SDS011;19986;48.190;16.366;2023-07-29T10:40:06;27.30;;;25.92;;
33644;SDS011;19986;48.190;16.366;2023-07-29T10:42:33;27.90;;;26.70;;
33644;SDS011;19986;48.190;16.366;2023-07-29T10:45:00;27.25;;;26.05;;
33644;SDS011;19986;48.190;16.366;2023-07-29T10:47:42;28.45;;;27.15;;
33644;SDS011;19986;48.190;16.366;2023-07-29T10:50:16;28.17;;;26.90;;
33644;SDS011;19986;48.190;16.366;2023-07-29T10:52:43;28.05;;;26.85;;
33644;SDS011;19986;48.190;16.366;2023-07-29T10:55:25;29.42;;;28.13;;
33644;SDS011;19986;48.190;16.366;2023-07-29T10:57:53;27.73;;;26.52;;
33644;SDS011;19986;48.190;16.366;2023-07-29T11:00:43;28.48;;;27.17;;
33644;SDS011;19986;48.190;16.366;2023-07-29T11:03:11;30.17;;;28.77;;
33644;SDS011;19986;48.190;16.366;2023-07-29T11:05:44;29.00;;;27.60;;
33644;SDS011;19986;48.190;16.366;2023-07-29T11:10:43;29.10;;;27.77;;
33644;SDS011;19986;48.190;16.366;2023-07-29T11:13:09;28.70;;;27.20;;
33644;SDS011;19986;48.190;16.366;2023-07-29T11:15:37;28.80;;;27.48;;
33644;SDS011;19986;48.190;16.366;2023-07-29T11:18:04;28.65;;;27.25;;
33644;SDS011;19986;48.190;16.366;2023-07-29T11:20:32;27.70;;;26.45;;
33644;SDS011;19986;48.190;16.366;2023-07-29T11:22:59;28.15;;;26.92;;
33644;SDS011;19986;48.190;16.366;2023-07-29T11:25:27;29.25;;;27.85;;
33644;SDS011;19986;48.190;16.366;2023-07-29T11:27:57;28.70;;;27.48;;
33644;SDS011;19986;48.190;16.366;2023-07-29T11:30:24;27.70;;;26.50;;
33644;SDS011;19986;48.190;16.366;2023-07-29T11:32:55;28.73;;;27.42;;
33644;SDS011;19986;48.190;16.366;2023-07-29T11:35:21;25.75;;;24.42;;
33644;SDS011;19986;48.190;16.366;2023-07-29T11:37:47;29.42;;;27.95;;
33644;SDS011;19986;48.190;16.366;2023-07-29T11:40:15;27.20;;;25.85;;
33644;SDS011;19986;48.190;16.366;2023-07-29T11:42:42;28.38;;;27.08;;
33644;SDS011;19986;48.190;16.366;2023-07-29T11:45:08;27.30;;;26.00;;
33644;SDS011;19986;48.190;16.366;2023-07-29T11:47:35;27.90;;;26.70;;
33644;SDS011;19986;48.190;16.366;2023-07-29T11:50:05;28.08;;;26.77;;
33644;SDS011;19986;48.190;16.366;2023-07-29T11:52:34;29.42;;;27.48;;
33644;SDS011;19986;48.190;16.366;2023-07-29T11:55:05;28.80;;;27.40;;
33644;SDS011;19986;48.190;16.366;2023-07-29T11:57:33;29.25;;;27.65;;
33644;SDS011;19986;48.190;16.366;2023-07-29T12:00:04;27.48;;;26.27;;
33644;SDS011;19986;48.190;16.366;2023-07-29T12:02:33;28.80;;;27.10;;
33644;SDS011;19986;48.190;16.366;2023-07-29T12:05:04;27.25;;;25.95;;
33644;SDS011;19986;48.190;16.366;2023-07-29T12:07:31;28.17;;;26.88;;
33644;SDS011;19986;48.190;16.366;2023-07-29T12:09:58;28.92;;;27.52;;
33644;SDS011;19986;48.190;16.366;2023-07-29T12:12:24;29.13;;;27.73;;
33644;SDS011;19986;48.190;16.366;2023-07-29T12:14:50;28.30;;;27.02;;
33644;SDS011;19986;48.190;16.366;2023-07-29T12:17:16;30.02;;;28.08;;
33644;SDS011;19986;48.190;16.366;2023-07-29T12:19:43;28.10;;;26.70;;
33644;SDS011;19986;48.190;16.366;2023-07-29T12:22:09;28.45;;;27.20;;
33644;SDS011;19986;48.190;16.366;2023-07-29T12:24:37;29.33;;;28.02;;
33644;SDS011;19986;48.190;16.366;2023-07-29T12:27:04;29.23;;;27.88;;
33644;SDS011;19986;48.190;16.366;2023-07-29T12:29:30;29.27;;;27.98;;
33644;SDS011;19986;48.190;16.366;2023-07-29T12:32:00;28.17;;;26.88;;
33644;SDS011;19986;48.190;16.366;2023-07-29T12:34:27;29.20;;;27.80;;
33644;SDS011;19986;48.190;16.366;2023-07-29T12:36:54;30.48;;;28.98;;
33644;SDS011;19986;48.190;16.366;2023-07-29T12:42:01;31.02;;;29.33;;
33644;SDS011;19986;48.190;16.366;2023-07-29T12:44:32;29.15;;;27.75;;
33644;SDS011;19986;48.190;16.366;2023-07-29T12:47:03;29.42;;;28.13;;
33644;SDS011;19986;48.190;16.366;2023-07-29T12:49:31;28.58;;;27.27;;
33644;SDS011;19986;48.190;16.366;2023-07-29T12:51:58;29.73;;;28.33;;
33644;SDS011;19986;48.190;16.366;2023-07-29T12:54:25;30.13;;;28.55;;
33644;SDS011;19986;48.190;16.366;2023-07-29T12:56:51;30.25;;;28.38;;
33644;SDS011;19986;48.190;16.366;2023-07-29T12:59:17;30.80;;;29.30;;
33644;SDS011;19986;48.190;16.366;2023-07-29T13:01:43;28.73;;;27.42;;
33644;SDS011;19986;48.190;16.366;2023-07-29T13:04:09;29.70;;;28.30;;
33644;SDS011;19986;48.190;16.366;2023-07-29T13:06:36;29.20;;;27.60;;
33644;SDS011;19986;48.190;16.366;2023-07-29T13:09:02;30.10;;;28.58;;
33644;SDS011;19986;48.190;16.366;2023-07-29T13:11:28;29.52;;;28.10;;
33644;SDS011;19986;48.190;16.366;2023-07-29T13:13:54;29.38;;;28.00;;
33644;SDS011;19986;48.190;16.366;2023-07-29T13:16:21;30.67;;;28.80;;
33644;SDS011;19986;48.190;16.366;2023-07-29T13:18:47;30.35;;;28.70;;
33644;SDS011;19986;48.190;16.366;2023-07-29T13:21:13;28.63;;;27.05;;
33644;SDS011;19986;48.190;16.366;2023-07-29T13:23:41;28.38;;;27.08;;
33644;SDS011;19986;48.190;16.366;2023-07-29T13:26:07;29.20;;;27.80;;
33644;SDS011;19986;48.190;16.366;2023-07-29T13:28:33;30.15;;;28.50;;
33644;SDS011;19986;48.190;16.366;2023-07-29T13:30:59;28.88;;;27.58;;
33644;SDS011;19986;48.190;16.366;2023-07-29T13:33:26;28.35;;;26.92;;
33644;SDS011;19986;48.190;16.366;2023-07-29T13:35:52;28.90;;;27.55;;
33644;SDS011;19986;48.190;16.366;2023-07-29T13:38:18;29.63;;;28.23;;
33644;SDS011;19986;48.190;16.366;2023-07-29T13:40:45;30.15;;;28.77;;
33644;SDS011;19986;48.190;16.366;2023-07-29T13:43:11;28.55;;;27.25;;
33644;SDS011;19986;48.190;16.366;2023-07-29T13:45:42;30.67;;;29.13;;
33644;SDS011;19986;48.190;16.366;2023-07-29T13:48:08;29.60;;;28.10;;
33644;SDS011;19986;48.190;16.366;2023-07-29T13:50:34;31.08;;;29.58;;
33644;SDS011;19986;48.190;16.366;2023-07-29T13:53:00;31.17;;;29.63;;
33644;SDS011;19986;48.190;16.366;2023-07-29T13:55:26;30.42;;;28.92;;
33644;SDS011;19986;48.190;16.366;2023-07-29T13:57:52;27.38;;;26.15;;
33644;SDS011;19986;48.190;16.366;2023-07-29T14:00:22;30.05;;;28.55;;
33644;SDS011;19986;48.190;16.366;2023-07-29T14:02:48;29.17;;;27.77;;
33644;SDS011;19986;48.190;16.366;2023-07-29T14:05:14;28.85;;;27.33;;
33644;SDS011;19986;48.190;16.366;2023-07-29T14:07:40;31.10;;;29.60;;
33644;SDS011;19986;48.190;16.366;2023-07-29T14:10:06;28.85;;;27.35;;
33644;SDS011;19986;48.190;16.366;2023-07-29T14:12:33;31.77;;;29.98;;
33644;SDS011;19986;48.190;16.366;2023-07-29T14:15:00;30.40;;;28.75;;
33644;SDS011;19986;48.190;16.366;2023-07-29T14:17:26;30.40;;;29.00;;
33644;SDS011;19986;48.190;16.366;2023-07-29T14:19:52;32.00;;;30.40;;